Imperial Eagle — V7TK5 — position and weather

sailwx.info

Track history (hours):
 
Tides and Currents Weather Stations Pressure Air Temp Water Temp Dewpoint Dewpoint Depression Visibility Wind Speed Wind Dir Waves Ship Positions

Imperial Eagle

Last reported at 2014-Oct-27 17:26 UTC. Time now 2014-Oct-31 22:12 UTC.
Position N 01°10' E 103°47'.

Length 190 m; draft 12.5 m.

Type: Cargo ship. MMSI: 256759020.

Date/timePositionNaut miles runAvg speedWind from/ knotsBaromVisibWave heightAir tempDewpointWater temp
2014-Oct-27 17:26N 01°10' E 103°47'4 2.0
2014-Oct-27 15:34N 01°12' E 103°50'8 7.5
2014-Oct-27 14:33N 01°16' E 103°57'1 1.0
2014-Oct-27 13:10N 01°17' E 103°57'0 0.0
2014-Oct-27 12:04N 01°17' E 103°57'0 0.0
2014-Oct-27 11:34N 01°17' E 103°57'0 0.0
2014-Oct-27 10:13N 01°17' E 103°57'0 0.0
2014-Oct-27 09:31N 01°17' E 103°57'0 0.0
2014-Oct-27 08:16N 01°17' E 103°57'0 0.0
2014-Oct-27 07:25N 01°17' E 103°57'0 0.0
2014-Oct-27 06:07N 01°17' E 103°57'0 0.2
2014-Oct-27 05:28N 01°17' E 103°57'0 0.2
2014-Oct-27 04:31N 01°17' E 103°57'0 0.0
2014-Oct-27 03:19N 01°17' E 103°57'0 0.0
2014-Oct-27 02:28N 01°17' E 103°57'0 0.0
2014-Oct-27 01:13N 01°17' E 103°57'0 0.0
2014-Oct-26 23:19N 01°17' E 103°57'0 0.0
2014-Oct-26 22:22N 01°17' E 103°57'0 0.0
2014-Oct-26 21:25N 01°17' E 103°57'0 0.0
2014-Oct-26 20:31N 01°17' E 103°57'0 0.0
2014-Oct-26 19:22N 01°17' E 103°57'0 0.0
2014-Oct-26 18:22N 01°17' E 103°57'0 0.2
2014-Oct-26 17:31N 01°17' E 103°57'4 4.4
2014-Oct-26 16:33N 01°14' E 103°54'5 5.0
2014-Oct-26 15:33N 01°13' E 103°50'0 0.3
2014-Oct-26 14:32N 01°12' E 103°50'6 5.9
2014-Oct-26 13:33N 01°14' E 103°55'8 7.6
2014-Oct-26 12:28N 01°16' E 104°03'910.4
2014-Oct-26 11:33N 01°17' E 104°12'  
2014-Oct-23 21:11S 04°25' E 112°52'1111.1
2014-Oct-23 20:11S 04°28' E 113°03'3511.1
2014-Oct-23 17:04S 04°37' E 113°36'  
Track history (hours):
 
Tides and Currents Weather Stations Pressure Air Temp Water Temp Dewpoint Dewpoint Depression Visibility Wind Speed Wind Dir Waves Ship Positions

Imperial Eagle

Last reported at 2014-Oct-27 17:26 UTC. Time now 2014-Oct-31 22:12 UTC.
Position N 01°10' E 103°47'.

Length 190 m; draft 12.5 m.

Type: Cargo ship. MMSI: 256759020.

Date/timePositionNaut miles runAvg speedWind from/ knotsBaromVisibWave heightAir tempDewpointWater temp
2014-Oct-27 17:26N 01°10' E 103°47'4 2.0
2014-Oct-27 15:34N 01°12' E 103°50'8 7.5
2014-Oct-27 14:33N 01°16' E 103°57'1 1.0
2014-Oct-27 13:10N 01°17' E 103°57'0 0.0
2014-Oct-27 12:04N 01°17' E 103°57'0 0.0
2014-Oct-27 11:34N 01°17' E 103°57'0 0.0
2014-Oct-27 10:13N 01°17' E 103°57'0 0.0
2014-Oct-27 09:31N 01°17' E 103°57'0 0.0
2014-Oct-27 08:16N 01°17' E 103°57'0 0.0
2014-Oct-27 07:25N 01°17' E 103°57'0 0.0
2014-Oct-27 06:07N 01°17' E 103°57'0 0.2
2014-Oct-27 05:28N 01°17' E 103°57'0 0.2
2014-Oct-27 04:31N 01°17' E 103°57'0 0.0
2014-Oct-27 03:19N 01°17' E 103°57'0 0.0
2014-Oct-27 02:28N 01°17' E 103°57'0 0.0
2014-Oct-27 01:13N 01°17' E 103°57'0 0.0
2014-Oct-26 23:19N 01°17' E 103°57'0 0.0
2014-Oct-26 22:22N 01°17' E 103°57'0 0.0
2014-Oct-26 21:25N 01°17' E 103°57'0 0.0
2014-Oct-26 20:31N 01°17' E 103°57'0 0.0
2014-Oct-26 19:22N 01°17' E 103°57'0 0.0
2014-Oct-26 18:22N 01°17' E 103°57'0 0.2
2014-Oct-26 17:31N 01°17' E 103°57'4 4.4
2014-Oct-26 16:33N 01°14' E 103°54'5 5.0
2014-Oct-26 15:33N 01°13' E 103°50'0 0.3
2014-Oct-26 14:32N 01°12' E 103°50'6 5.9
2014-Oct-26 13:33N 01°14' E 103°55'8 7.6
2014-Oct-26 12:28N 01°16' E 104°03'910.4
2014-Oct-26 11:33N 01°17' E 104°12'  
2014-Oct-23 21:11S 04°25' E 112°52'1111.1
2014-Oct-23 20:11S 04°28' E 113°03'3511.1
2014-Oct-23 17:04S 04°37' E 113°36'  

Dump ship's entire track history